sensor_id;sensor_type;location;lat;lon;timestamp;P1;durP1;ratioP1;P2;durP2;ratioP2
20619;SDS011;10469;42.720;23.252;2024-01-15T00:00:12;117.53;;;63.13;;
20619;SDS011;10469;42.720;23.252;2024-01-15T00:02:38;100.85;;;54.85;;
20619;SDS011;10469;42.720;23.252;2024-01-15T00:05:04;89.15;;;47.17;;
20619;SDS011;10469;42.720;23.252;2024-01-15T00:07:29;100.00;;;51.97;;
20619;SDS011;10469;42.720;23.252;2024-01-15T00:09:55;116.05;;;59.47;;
20619;SDS011;10469;42.720;23.252;2024-01-15T00:12:21;130.25;;;66.22;;
20619;SDS011;10469;42.720;23.252;2024-01-15T00:14:46;97.22;;;50.95;;
20619;SDS011;10469;42.720;23.252;2024-01-15T00:17:12;98.45;;;51.08;;
20619;SDS011;10469;42.720;23.252;2024-01-15T00:19:38;115.85;;;63.40;;
20619;SDS011;10469;42.720;23.252;2024-01-15T00:22:04;124.70;;;65.38;;
20619;SDS011;10469;42.720;23.252;2024-01-15T00:24:29;117.90;;;62.70;;
20619;SDS011;10469;42.720;23.252;2024-01-15T00:26:55;116.28;;;60.42;;
20619;SDS011;10469;42.720;23.252;2024-01-15T00:29:21;85.70;;;46.20;;
20619;SDS011;10469;42.720;23.252;2024-01-15T00:31:47;87.03;;;46.72;;
20619;SDS011;10469;42.720;23.252;2024-01-15T00:34:12;96.75;;;52.20;;
20619;SDS011;10469;42.720;23.252;2024-01-15T00:36:38;84.22;;;45.25;;
20619;SDS011;10469;42.720;23.252;2024-01-15T00:39:04;104.07;;;54.92;;
20619;SDS011;10469;42.720;23.252;2024-01-15T00:41:32;104.53;;;54.10;;
20619;SDS011;10469;42.720;23.252;2024-01-15T00:43:58;94.25;;;52.22;;
20619;SDS011;10469;42.720;23.252;2024-01-15T00:46:23;92.72;;;46.78;;
20619;SDS011;10469;42.720;23.252;2024-01-15T00:48:49;87.05;;;46.20;;
20619;SDS011;10469;42.720;23.252;2024-01-15T00:51:15;75.88;;;41.10;;
20619;SDS011;10469;42.720;23.252;2024-01-15T00:53:41;61.65;;;32.78;;
20619;SDS011;10469;42.720;23.252;2024-01-15T00:56:07;64.53;;;36.60;;
20619;SDS011;10469;42.720;23.252;2024-01-15T00:58:33;67.85;;;36.83;;
20619;SDS011;10469;42.720;23.252;2024-01-15T01:00:58;71.57;;;37.67;;
20619;SDS011;10469;42.720;23.252;2024-01-15T01:03:24;70.88;;;39.17;;
20619;SDS011;10469;42.720;23.252;2024-01-15T01:05:49;76.90;;;38.50;;
20619;SDS011;10469;42.720;23.252;2024-01-15T01:08:15;67.72;;;38.25;;
20619;SDS011;10469;42.720;23.252;2024-01-15T01:10:41;61.60;;;33.95;;
20619;SDS011;10469;42.720;23.252;2024-01-15T01:13:09;60.08;;;33.58;;
20619;SDS011;10469;42.720;23.252;2024-01-15T01:15:35;59.97;;;32.65;;
20619;SDS011;10469;42.720;23.252;2024-01-15T01:18:01;61.17;;;34.53;;
20619;SDS011;10469;42.720;23.252;2024-01-15T01:20:26;66.57;;;34.45;;
20619;SDS011;10469;42.720;23.252;2024-01-15T01:22:52;69.72;;;37.45;;
20619;SDS011;10469;42.720;23.252;2024-01-15T01:25:17;65.82;;;33.38;;
20619;SDS011;10469;42.720;23.252;2024-01-15T01:27:43;61.80;;;32.47;;
20619;SDS011;10469;42.720;23.252;2024-01-15T01:30:09;66.40;;;34.72;;
20619;SDS011;10469;42.720;23.252;2024-01-15T01:32:34;62.08;;;33.55;;
20619;SDS011;10469;42.720;23.252;2024-01-15T01:35:00;57.22;;;31.25;;
20619;SDS011;10469;42.720;23.252;2024-01-15T01:37:27;64.95;;;33.00;;
20619;SDS011;10469;42.720;23.252;2024-01-15T01:39:54;64.13;;;34.50;;
20619;SDS011;10469;42.720;23.252;2024-01-15T01:42:19;69.22;;;36.33;;
20619;SDS011;10469;42.720;23.252;2024-01-15T01:44:45;63.42;;;35.90;;
20619;SDS011;10469;42.720;23.252;2024-01-15T01:47:11;65.35;;;37.53;;
20619;SDS011;10469;42.720;23.252;2024-01-15T01:49:37;61.25;;;34.10;;
20619;SDS011;10469;42.720;23.252;2024-01-15T01:52:04;73.75;;;37.08;;
20619;SDS011;10469;42.720;23.252;2024-01-15T01:54:31;68.32;;;36.95;;
20619;SDS011;10469;42.720;23.252;2024-01-15T01:56:57;63.38;;;35.40;;
20619;SDS011;10469;42.720;23.252;2024-01-15T01:59:25;66.80;;;36.95;;
20619;SDS011;10469;42.720;23.252;2024-01-15T02:01:52;65.35;;;36.80;;
20619;SDS011;10469;42.720;23.252;2024-01-15T02:04:20;68.63;;;38.38;;
20619;SDS011;10469;42.720;23.252;2024-01-15T02:06:48;68.57;;;36.42;;
20619;SDS011;10469;42.720;23.252;2024-01-15T02:09:15;64.18;;;36.55;;
20619;SDS011;10469;42.720;23.252;2024-01-15T02:11:41;63.35;;;35.22;;
20619;SDS011;10469;42.720;23.252;2024-01-15T02:14:08;67.13;;;35.63;;
20619;SDS011;10469;42.720;23.252;2024-01-15T02:16:34;66.78;;;35.97;;
20619;SDS011;10469;42.720;23.252;2024-01-15T02:19:00;70.47;;;38.03;;
20619;SDS011;10469;42.720;23.252;2024-01-15T02:21:25;73.78;;;38.97;;
20619;SDS011;10469;42.720;23.252;2024-01-15T02:23:53;80.38;;;43.08;;
20619;SDS011;10469;42.720;23.252;2024-01-15T02:26:20;95.53;;;47.53;;
20619;SDS011;10469;42.720;23.252;2024-01-15T02:28:46;98.90;;;55.67;;
20619;SDS011;10469;42.720;23.252;2024-01-15T02:31:13;95.95;;;52.75;;
20619;SDS011;10469;42.720;23.252;2024-01-15T02:33:38;74.93;;;40.85;;
20619;SDS011;10469;42.720;23.252;2024-01-15T02:36:04;88.90;;;45.60;;
20619;SDS011;10469;42.720;23.252;2024-01-15T02:38:30;100.53;;;53.67;;
20619;SDS011;10469;42.720;23.252;2024-01-15T02:40:56;93.50;;;53.05;;
20619;SDS011;10469;42.720;23.252;2024-01-15T02:43:22;110.65;;;61.53;;
20619;SDS011;10469;42.720;23.252;2024-01-15T02:45:47;98.00;;;51.00;;
20619;SDS011;10469;42.720;23.252;2024-01-15T02:48:13;94.75;;;50.13;;
20619;SDS011;10469;42.720;23.252;2024-01-15T02:50:39;88.35;;;46.42;;
20619;SDS011;10469;42.720;23.252;2024-01-15T02:53:04;87.20;;;47.22;;
20619;SDS011;10469;42.720;23.252;2024-01-15T02:55:30;87.05;;;46.60;;
20619;SDS011;10469;42.720;23.252;2024-01-15T02:57:56;88.97;;;46.13;;
20619;SDS011;10469;42.720;23.252;2024-01-15T03:00:22;93.32;;;46.05;;
20619;SDS011;10469;42.720;23.252;2024-01-15T03:02:49;82.82;;;45.75;;
20619;SDS011;10469;42.720;23.252;2024-01-15T03:05:16;98.85;;;55.70;;
20619;SDS011;10469;42.720;23.252;2024-01-15T03:07:42;122.65;;;69.40;;
20619;SDS011;10469;42.720;23.252;2024-01-15T03:10:08;143.48;;;80.22;;
20619;SDS011;10469;42.720;23.252;2024-01-15T03:12:34;135.23;;;79.32;;
20619;SDS011;10469;42.720;23.252;2024-01-15T03:15:00;158.10;;;87.25;;
20619;SDS011;10469;42.720;23.252;2024-01-15T03:17:26;140.55;;;81.68;;
20619;SDS011;10469;42.720;23.252;2024-01-15T03:19:52;148.00;;;82.35;;
20619;SDS011;10469;42.720;23.252;2024-01-15T03:22:17;155.48;;;91.10;;
20619;SDS011;10469;42.720;23.252;2024-01-15T03:24:43;146.55;;;83.75;;
20619;SDS011;10469;42.720;23.252;2024-01-15T03:27:09;140.65;;;84.40;;
20619;SDS011;10469;42.720;23.252;2024-01-15T03:29:35;147.80;;;88.05;;
20619;SDS011;10469;42.720;23.252;2024-01-15T03:32:00;161.23;;;95.97;;
20619;SDS011;10469;42.720;23.252;2024-01-15T03:34:26;166.10;;;98.55;;
20619;SDS011;10469;42.720;23.252;2024-01-15T03:36:52;164.82;;;92.32;;
20619;SDS011;10469;42.720;23.252;2024-01-15T03:39:17;173.63;;;100.85;;
20619;SDS011;10469;42.720;23.252;2024-01-15T03:41:43;159.05;;;93.63;;
20619;SDS011;10469;42.720;23.252;2024-01-15T03:44:08;165.43;;;94.10;;
20619;SDS011;10469;42.720;23.252;2024-01-15T03:46:34;156.93;;;92.45;;
20619;SDS011;10469;42.720;23.252;2024-01-15T03:49:00;160.80;;;90.00;;
20619;SDS011;10469;42.720;23.252;2024-01-15T03:51:25;139.93;;;80.80;;
20619;SDS011;10469;42.720;23.252;2024-01-15T03:53:51;129.10;;;74.25;;
20619;SDS011;10469;42.720;23.252;2024-01-15T03:56:16;121.60;;;69.68;;
20619;SDS011;10469;42.720;23.252;2024-01-15T03:58:42;121.05;;;67.90;;
20619;SDS011;10469;42.720;23.252;2024-01-15T04:06:05;132.05;;;72.57;;
20619;SDS011;10469;42.720;23.252;2024-01-15T04:08:30;129.65;;;72.30;;
20619;SDS011;10469;42.720;23.252;2024-01-15T04:10:56;147.82;;;84.10;;
20619;SDS011;10469;42.720;23.252;2024-01-15T04:13:22;151.18;;;85.22;;
20619;SDS011;10469;42.720;23.252;2024-01-15T04:15:48;150.60;;;84.03;;
20619;SDS011;10469;42.720;23.252;2024-01-15T04:18:15;136.40;;;77.63;;
20619;SDS011;10469;42.720;23.252;2024-01-15T04:20:41;135.77;;;78.85;;
20619;SDS011;10469;42.720;23.252;2024-01-15T04:23:07;133.25;;;74.38;;
20619;SDS011;10469;42.720;23.252;2024-01-15T04:25:32;135.18;;;75.65;;
20619;SDS011;10469;42.720;23.252;2024-01-15T04:27:58;134.30;;;75.55;;
20619;SDS011;10469;42.720;23.252;2024-01-15T04:30:24;126.15;;;75.13;;
20619;SDS011;10469;42.720;23.252;2024-01-15T04:32:49;131.13;;;74.78;;
20619;SDS011;10469;42.720;23.252;2024-01-15T04:35:15;132.40;;;78.85;;
20619;SDS011;10469;42.720;23.252;2024-01-15T04:37:40;134.00;;;73.70;;
20619;SDS011;10469;42.720;23.252;2024-01-15T04:40:06;125.18;;;69.68;;
20619;SDS011;10469;42.720;23.252;2024-01-15T04:42:33;125.25;;;73.05;;
20619;SDS011;10469;42.720;23.252;2024-01-15T04:44:59;96.40;;;55.05;;
20619;SDS011;10469;42.720;23.252;2024-01-15T04:47:25;120.10;;;69.53;;
20619;SDS011;10469;42.720;23.252;2024-01-15T04:49:50;125.18;;;70.85;;
20619;SDS011;10469;42.720;23.252;2024-01-15T04:52:16;122.07;;;66.95;;
20619;SDS011;10469;42.720;23.252;2024-01-15T04:54:41;68.13;;;38.53;;
20619;SDS011;10469;42.720;23.252;2024-01-15T04:57:07;120.43;;;67.00;;
20619;SDS011;10469;42.720;23.252;2024-01-15T04:59:33;118.25;;;69.78;;
20619;SDS011;10469;42.720;23.252;2024-01-15T05:01:58;125.70;;;65.95;;
20619;SDS011;10469;42.720;23.252;2024-01-15T05:04:24;120.32;;;70.25;;
20619;SDS011;10469;42.720;23.252;2024-01-15T05:06:50;132.35;;;73.00;;
20619;SDS011;10469;42.720;23.252;2024-01-15T05:09:16;120.10;;;68.85;;
20619;SDS011;10469;42.720;23.252;2024-01-15T05:11:43;123.13;;;66.43;;
20619;SDS011;10469;42.720;23.252;2024-01-15T05:14:08;121.57;;;68.05;;
20619;SDS011;10469;42.720;23.252;2024-01-15T05:16:34;121.45;;;70.35;;
20619;SDS011;10469;42.720;23.252;2024-01-15T05:19:00;125.95;;;70.40;;
20619;SDS011;10469;42.720;23.252;2024-01-15T05:21:25;116.82;;;66.38;;
20619;SDS011;10469;42.720;23.252;2024-01-15T05:23:51;128.50;;;71.65;;
20619;SDS011;10469;42.720;23.252;2024-01-15T05:26:17;132.00;;;74.43;;
20619;SDS011;10469;42.720;23.252;2024-01-15T05:28:42;133.88;;;80.65;;
20619;SDS011;10469;42.720;23.252;2024-01-15T05:31:08;153.65;;;92.38;;
20619;SDS011;10469;42.720;23.252;2024-01-15T05:33:35;150.13;;;87.05;;
20619;SDS011;10469;42.720;23.252;2024-01-15T05:36:01;149.82;;;89.93;;
20619;SDS011;10469;42.720;23.252;2024-01-15T05:38:27;148.48;;;87.38;;
20619;SDS011;10469;42.720;23.252;2024-01-15T05:40:53;146.63;;;86.30;;
20619;SDS011;10469;42.720;23.252;2024-01-15T05:43:19;143.00;;;81.55;;
20619;SDS011;10469;42.720;23.252;2024-01-15T05:45:44;141.75;;;85.65;;
20619;SDS011;10469;42.720;23.252;2024-01-15T05:48:10;146.65;;;83.45;;
20619;SDS011;10469;42.720;23.252;2024-01-15T05:50:36;143.57;;;86.05;;
20619;SDS011;10469;42.720;23.252;2024-01-15T05:53:02;143.20;;;77.45;;
20619;SDS011;10469;42.720;23.252;2024-01-15T05:55:28;140.35;;;79.85;;
20619;SDS011;10469;42.720;23.252;2024-01-15T05:57:53;121.63;;;69.88;;
20619;SDS011;10469;42.720;23.252;2024-01-15T06:00:19;121.55;;;64.95;;
20619;SDS011;10469;42.720;23.252;2024-01-15T06:02:44;132.50;;;72.60;;
20619;SDS011;10469;42.720;23.252;2024-01-15T06:05:10;140.75;;;78.40;;
20619;SDS011;10469;42.720;23.252;2024-01-15T06:07:36;132.25;;;72.15;;
20619;SDS011;10469;42.720;23.252;2024-01-15T06:10:02;131.98;;;72.07;;
20619;SDS011;10469;42.720;23.252;2024-01-15T06:12:29;136.48;;;75.57;;
20619;SDS011;10469;42.720;23.252;2024-01-15T06:14:56;136.77;;;76.60;;
20619;SDS011;10469;42.720;23.252;2024-01-15T06:17:21;140.45;;;78.20;;
20619;SDS011;10469;42.720;23.252;2024-01-15T06:19:47;135.07;;;75.50;;
20619;SDS011;10469;42.720;23.252;2024-01-15T06:22:13;141.98;;;75.20;;
20619;SDS011;10469;42.720;23.252;2024-01-15T06:24:38;138.52;;;76.00;;
20619;SDS011;10469;42.720;23.252;2024-01-15T06:27:04;131.05;;;71.97;;
20619;SDS011;10469;42.720;23.252;2024-01-15T06:29:30;140.07;;;75.18;;
20619;SDS011;10469;42.720;23.252;2024-01-15T06:31:55;136.23;;;70.65;;
20619;SDS011;10469;42.720;23.252;2024-01-15T06:34:21;113.18;;;63.65;;
20619;SDS011;10469;42.720;23.252;2024-01-15T06:36:47;98.70;;;55.30;;
20619;SDS011;10469;42.720;23.252;2024-01-15T06:39:12;97.97;;;52.67;;
20619;SDS011;10469;42.720;23.252;2024-01-15T06:41:38;91.40;;;47.45;;
20619;SDS011;10469;42.720;23.252;2024-01-15T06:44:11;97.97;;;51.10;;
20619;SDS011;10469;42.720;23.252;2024-01-15T06:46:44;92.90;;;50.33;;
20619;SDS011;10469;42.720;23.252;2024-01-15T06:49:10;102.03;;;54.35;;
20619;SDS011;10469;42.720;23.252;2024-01-15T06:51:36;110.93;;;54.22;;
20619;SDS011;10469;42.720;23.252;2024-01-15T06:54:01;114.55;;;60.55;;
20619;SDS011;10469;42.720;23.252;2024-01-15T06:56:27;126.85;;;67.22;;
20619;SDS011;10469;42.720;23.252;2024-01-15T06:58:53;122.47;;;68.75;;
20619;SDS011;10469;42.720;23.252;2024-01-15T07:01:18;125.03;;;69.95;;
20619;SDS011;10469;42.720;23.252;2024-01-15T07:03:44;136.18;;;77.82;;
20619;SDS011;10469;42.720;23.252;2024-01-15T07:06:10;133.55;;;80.95;;
20619;SDS011;10469;42.720;23.252;2024-01-15T07:08:36;138.70;;;75.75;;
20619;SDS011;10469;42.720;23.252;2024-01-15T07:11:05;131.75;;;72.15;;
20619;SDS011;10469;42.720;23.252;2024-01-15T07:13:31;126.65;;;70.05;;
20619;SDS011;10469;42.720;23.252;2024-01-15T07:15:57;130.15;;;69.75;;
20619;SDS011;10469;42.720;23.252;2024-01-15T07:18:23;121.78;;;68.70;;
20619;SDS011;10469;42.720;23.252;2024-01-15T07:20:49;120.15;;;70.30;;
20619;SDS011;10469;42.720;23.252;2024-01-15T07:23:15;127.43;;;73.30;;
20619;SDS011;10469;42.720;23.252;2024-01-15T07:25:40;111.90;;;65.63;;
20619;SDS011;10469;42.720;23.252;2024-01-15T07:28:06;109.05;;;62.10;;
20619;SDS011;10469;42.720;23.252;2024-01-15T07:30:32;105.28;;;55.08;;
20619;SDS011;10469;42.720;23.252;2024-01-15T07:32:57;106.15;;;57.20;;
20619;SDS011;10469;42.720;23.252;2024-01-15T07:35:23;103.95;;;59.67;;
20619;SDS011;10469;42.720;23.252;2024-01-15T07:37:49;106.80;;;59.78;;
20619;SDS011;10469;42.720;23.252;2024-01-15T07:40:15;117.80;;;65.18;;
20619;SDS011;10469;42.720;23.252;2024-01-15T07:42:41;119.47;;;69.82;;
20619;SDS011;10469;42.720;23.252;2024-01-15T07:45:08;136.70;;;74.45;;
20619;SDS011;10469;42.720;23.252;2024-01-15T07:47:34;147.00;;;78.88;;
20619;SDS011;10469;42.720;23.252;2024-01-15T07:50:00;122.32;;;67.93;;
20619;SDS011;10469;42.720;23.252;2024-01-15T07:52:26;130.07;;;72.45;;
20619;SDS011;10469;42.720;23.252;2024-01-15T07:54:51;126.70;;;72.07;;
20619;SDS011;10469;42.720;23.252;2024-01-15T07:57:17;135.00;;;77.78;;
20619;SDS011;10469;42.720;23.252;2024-01-15T07:59:42;133.73;;;77.00;;
20619;SDS011;10469;42.720;23.252;2024-01-15T08:02:08;147.13;;;75.85;;
20619;SDS011;10469;42.720;23.252;2024-01-15T08:04:34;148.88;;;83.90;;
20619;SDS011;10469;42.720;23.252;2024-01-15T08:06:59;151.75;;;87.65;;
20619;SDS011;10469;42.720;23.252;2024-01-15T08:09:25;164.57;;;90.47;;
20619;SDS011;10469;42.720;23.252;2024-01-15T08:11:50;153.45;;;85.75;;
20619;SDS011;10469;42.720;23.252;2024-01-15T08:14:17;142.80;;;84.07;;
20619;SDS011;10469;42.720;23.252;2024-01-15T08:16:42;150.75;;;81.13;;
20619;SDS011;10469;42.720;23.252;2024-01-15T08:19:08;146.05;;;85.18;;
20619;SDS011;10469;42.720;23.252;2024-01-15T08:21:34;144.13;;;82.22;;
20619;SDS011;10469;42.720;23.252;2024-01-15T08:24:01;140.20;;;86.13;;
20619;SDS011;10469;42.720;23.252;2024-01-15T08:26:28;141.63;;;82.20;;
20619;SDS011;10469;42.720;23.252;2024-01-15T08:28:54;151.75;;;85.15;;
20619;SDS011;10469;42.720;23.252;2024-01-15T08:31:20;143.02;;;84.97;;
20619;SDS011;10469;42.720;23.252;2024-01-15T08:33:46;146.65;;;82.60;;
20619;SDS011;10469;42.720;23.252;2024-01-15T08:36:11;145.82;;;80.60;;
20619;SDS011;10469;42.720;23.252;2024-01-15T08:38:37;148.63;;;81.00;;
20619;SDS011;10469;42.720;23.252;2024-01-15T08:41:03;147.80;;;80.60;;
20619;SDS011;10469;42.720;23.252;2024-01-15T08:43:29;154.18;;;85.20;;
20619;SDS011;10469;42.720;23.252;2024-01-15T08:45:56;157.50;;;85.45;;
20619;SDS011;10469;42.720;23.252;2024-01-15T08:48:22;159.70;;;81.80;;
20619;SDS011;10469;42.720;23.252;2024-01-15T08:50:48;156.25;;;86.72;;
20619;SDS011;10469;42.720;23.252;2024-01-15T08:53:14;138.93;;;71.18;;
20619;SDS011;10469;42.720;23.252;2024-01-15T08:55:39;119.78;;;61.20;;
20619;SDS011;10469;42.720;23.252;2024-01-15T08:58:07;113.60;;;60.38;;
20619;SDS011;10469;42.720;23.252;2024-01-15T09:00:33;117.25;;;60.72;;
20619;SDS011;10469;42.720;23.252;2024-01-15T09:02:59;128.90;;;65.65;;
20619;SDS011;10469;42.720;23.252;2024-01-15T09:05:25;105.57;;;58.08;;
20619;SDS011;10469;42.720;23.252;2024-01-15T09:07:51;101.15;;;52.50;;
20619;SDS011;10469;42.720;23.252;2024-01-15T09:10:17;100.45;;;55.67;;
20619;SDS011;10469;42.720;23.252;2024-01-15T09:12:43;95.18;;;54.55;;
20619;SDS011;10469;42.720;23.252;2024-01-15T09:15:09;86.70;;;50.88;;
20619;SDS011;10469;42.720;23.252;2024-01-15T09:17:35;96.38;;;54.03;;
20619;SDS011;10469;42.720;23.252;2024-01-15T09:20:01;100.03;;;54.08;;
20619;SDS011;10469;42.720;23.252;2024-01-15T09:22:26;98.88;;;54.85;;
20619;SDS011;10469;42.720;23.252;2024-01-15T09:24:52;96.18;;;53.25;;
20619;SDS011;10469;42.720;23.252;2024-01-15T09:27:18;101.95;;;55.35;;
20619;SDS011;10469;42.720;23.252;2024-01-15T09:29:43;113.78;;;63.35;;
20619;SDS011;10469;42.720;23.252;2024-01-15T09:32:11;110.82;;;62.67;;
20619;SDS011;10469;42.720;23.252;2024-01-15T09:34:37;123.15;;;67.43;;
20619;SDS011;10469;42.720;23.252;2024-01-15T09:37:03;113.47;;;65.15;;
20619;SDS011;10469;42.720;23.252;2024-01-15T09:39:29;111.13;;;66.50;;
20619;SDS011;10469;42.720;23.252;2024-01-15T09:41:56;118.13;;;63.60;;
20619;SDS011;10469;42.720;23.252;2024-01-15T09:44:22;112.50;;;63.20;;
20619;SDS011;10469;42.720;23.252;2024-01-15T09:46:48;118.47;;;65.40;;
20619;SDS011;10469;42.720;23.252;2024-01-15T09:49:17;103.38;;;56.85;;
20619;SDS011;10469;42.720;23.252;2024-01-15T09:51:43;98.57;;;55.88;;
20619;SDS011;10469;42.720;23.252;2024-01-15T09:54:10;95.47;;;53.70;;
20619;SDS011;10469;42.720;23.252;2024-01-15T09:56:38;95.22;;;55.38;;
20619;SDS011;10469;42.720;23.252;2024-01-15T09:59:04;101.47;;;54.50;;
20619;SDS011;10469;42.720;23.252;2024-01-15T10:01:31;91.78;;;52.10;;
20619;SDS011;10469;42.720;23.252;2024-01-15T10:03:57;90.75;;;49.85;;
20619;SDS011;10469;42.720;23.252;2024-01-15T10:08:56;90.88;;;49.30;;
20619;SDS011;10469;42.720;23.252;2024-01-15T10:11:25;86.03;;;47.22;;
20619;SDS011;10469;42.720;23.252;2024-01-15T10:13:51;85.47;;;48.33;;
20619;SDS011;10469;42.720;23.252;2024-01-15T10:16:21;90.25;;;47.70;;
20619;SDS011;10469;42.720;23.252;2024-01-15T10:18:47;77.72;;;43.30;;
20619;SDS011;10469;42.720;23.252;2024-01-15T10:21:13;70.72;;;37.78;;
20619;SDS011;10469;42.720;23.252;2024-01-15T10:23:39;61.92;;;38.05;;
20619;SDS011;10469;42.720;23.252;2024-01-15T10:26:05;58.25;;;35.75;;
20619;SDS011;10469;42.720;23.252;2024-01-15T10:28:31;57.13;;;33.50;;
20619;SDS011;10469;42.720;23.252;2024-01-15T10:30:57;68.90;;;37.00;;
20619;SDS011;10469;42.720;23.252;2024-01-15T10:33:24;64.47;;;36.65;;
20619;SDS011;10469;42.720;23.252;2024-01-15T10:35:53;66.72;;;36.65;;
20619;SDS011;10469;42.720;23.252;2024-01-15T10:38:20;65.47;;;36.38;;
20619;SDS011;10469;42.720;23.252;2024-01-15T10:43:19;68.20;;;36.22;;
20619;SDS011;10469;42.720;23.252;2024-01-15T10:45:46;57.88;;;33.75;;
20619;SDS011;10469;42.720;23.252;2024-01-15T10:48:19;59.30;;;32.65;;
20619;SDS011;10469;42.720;23.252;2024-01-15T10:50:45;54.25;;;26.20;;
20619;SDS011;10469;42.720;23.252;2024-01-15T10:53:14;48.22;;;27.85;;
20619;SDS011;10469;42.720;23.252;2024-01-15T10:55:41;51.78;;;30.05;;
20619;SDS011;10469;42.720;23.252;2024-01-15T10:58:08;57.63;;;31.67;;
20619;SDS011;10469;42.720;23.252;2024-01-15T11:00:37;48.88;;;25.98;;
20619;SDS011;10469;42.720;23.252;2024-01-15T11:03:04;31.45;;;19.45;;
20619;SDS011;10469;42.720;23.252;2024-01-15T11:06:04;35.65;;;19.45;;
20619;SDS011;10469;42.720;23.252;2024-01-15T11:08:24;39.35;;;19.60;;
20619;SDS011;10469;42.720;23.252;2024-01-15T11:10:50;29.73;;;19.52;;
20619;SDS011;10469;42.720;23.252;2024-01-15T11:16:01;36.20;;;22.73;;
20619;SDS011;10469;42.720;23.252;2024-01-15T11:18:32;33.35;;;20.80;;
20619;SDS011;10469;42.720;23.252;2024-01-15T11:23:42;30.42;;;17.88;;
20619;SDS011;10469;42.720;23.252;2024-01-15T11:28:55;30.80;;;17.73;;
20619;SDS011;10469;42.720;23.252;2024-01-15T11:34:08;31.23;;;17.30;;
20619;SDS011;10469;42.720;23.252;2024-01-15T11:41:56;32.20;;;17.38;;
20619;SDS011;10469;42.720;23.252;2024-01-15T11:44:23;35.85;;;18.55;;
20619;SDS011;10469;42.720;23.252;2024-01-15T11:47:08;35.88;;;19.60;;
20619;SDS011;10469;42.720;23.252;2024-01-15T11:52:12;42.13;;;19.20;;
20619;SDS011;10469;42.720;23.252;2024-01-15T11:54:42;35.97;;;19.55;;
20619;SDS011;10469;42.720;23.252;2024-01-15T12:00:20;41.45;;;22.00;;
20619;SDS011;10469;42.720;23.252;2024-01-15T12:02:47;45.97;;;20.92;;
20619;SDS011;10469;42.720;23.252;2024-01-15T12:05:17;39.63;;;20.17;;
20619;SDS011;10469;42.720;23.252;2024-01-15T12:07:44;47.72;;;20.75;;
20619;SDS011;10469;42.720;23.252;2024-01-15T12:10:13;45.67;;;22.02;;
20619;SDS011;10469;42.720;23.252;2024-01-15T12:15:26;45.58;;;21.77;;
20619;SDS011;10469;42.720;23.252;2024-01-15T12:17:55;48.40;;;23.50;;
20619;SDS011;10469;42.720;23.252;2024-01-15T12:20:23;40.65;;;21.65;;
20619;SDS011;10469;42.720;23.252;2024-01-15T12:22:49;39.28;;;21.33;;
20619;SDS011;10469;42.720;23.252;2024-01-15T12:25:15;42.55;;;22.73;;
20619;SDS011;10469;42.720;23.252;2024-01-15T12:27:41;46.70;;;21.80;;
20619;SDS011;10469;42.720;23.252;2024-01-15T12:30:07;40.58;;;19.35;;
20619;SDS011;10469;42.720;23.252;2024-01-15T12:32:35;33.47;;;18.42;;
20619;SDS011;10469;42.720;23.252;2024-01-15T12:35:02;40.53;;;18.88;;
20619;SDS011;10469;42.720;23.252;2024-01-15T12:37:28;39.40;;;19.10;;
20619;SDS011;10469;42.720;23.252;2024-01-15T12:39:54;26.88;;;15.45;;
20619;SDS011;10469;42.720;23.252;2024-01-15T12:42:21;37.72;;;19.08;;
20619;SDS011;10469;42.720;23.252;2024-01-15T12:44:46;32.55;;;15.52;;
20619;SDS011;10469;42.720;23.252;2024-01-15T12:47:13;28.88;;;15.10;;
20619;SDS011;10469;42.720;23.252;2024-01-15T12:49:39;31.10;;;16.08;;
20619;SDS011;10469;42.720;23.252;2024-01-15T12:52:07;24.02;;;13.95;;
20619;SDS011;10469;42.720;23.252;2024-01-15T12:54:34;31.90;;;14.52;;
20619;SDS011;10469;42.720;23.252;2024-01-15T12:57:00;35.55;;;17.38;;
20619;SDS011;10469;42.720;23.252;2024-01-15T12:59:25;31.90;;;15.25;;
20619;SDS011;10469;42.720;23.252;2024-01-15T13:01:51;34.78;;;15.95;;
20619;SDS011;10469;42.720;23.252;2024-01-15T13:04:23;32.38;;;17.38;;
20619;SDS011;10469;42.720;23.252;2024-01-15T13:06:50;33.35;;;18.08;;
20619;SDS011;10469;42.720;23.252;2024-01-15T13:09:16;30.17;;;16.98;;
20619;SDS011;10469;42.720;23.252;2024-01-15T13:11:43;32.95;;;18.58;;
20619;SDS011;10469;42.720;23.252;2024-01-15T13:14:10;38.45;;;17.08;;
20619;SDS011;10469;42.720;23.252;2024-01-15T13:16:35;36.00;;;20.02;;
20619;SDS011;10469;42.720;23.252;2024-01-15T13:19:01;42.92;;;22.48;;
20619;SDS011;10469;42.720;23.252;2024-01-15T13:21:29;33.35;;;16.38;;
20619;SDS011;10469;42.720;23.252;2024-01-15T13:23:55;35.72;;;19.05;;
20619;SDS011;10469;42.720;23.252;2024-01-15T13:26:21;34.05;;;18.52;;
20619;SDS011;10469;42.720;23.252;2024-01-15T13:28:47;31.88;;;17.08;;
20619;SDS011;10469;42.720;23.252;2024-01-15T13:31:13;30.20;;;16.17;;
20619;SDS011;10469;42.720;23.252;2024-01-15T13:33:39;33.00;;;17.50;;
20619;SDS011;10469;42.720;23.252;2024-01-15T13:36:05;28.55;;;16.30;;
20619;SDS011;10469;42.720;23.252;2024-01-15T13:38:36;26.17;;;14.82;;
20619;SDS011;10469;42.720;23.252;2024-01-15T13:41:03;27.05;;;14.70;;
20619;SDS011;10469;42.720;23.252;2024-01-15T13:43:31;22.83;;;12.73;;
20619;SDS011;10469;42.720;23.252;2024-01-15T13:45:57;22.23;;;12.70;;
20619;SDS011;10469;42.720;23.252;2024-01-15T13:48:23;27.42;;;14.57;;
20619;SDS011;10469;42.720;23.252;2024-01-15T13:50:49;25.33;;;16.23;;
20619;SDS011;10469;42.720;23.252;2024-01-15T13:53:16;26.88;;;15.32;;
20619;SDS011;10469;42.720;23.252;2024-01-15T13:55:41;29.38;;;15.57;;
20619;SDS011;10469;42.720;23.252;2024-01-15T13:58:07;32.30;;;15.38;;
20619;SDS011;10469;42.720;23.252;2024-01-15T14:00:33;26.38;;;15.05;;
20619;SDS011;10469;42.720;23.252;2024-01-15T14:02:58;36.00;;;15.30;;
20619;SDS011;10469;42.720;23.252;2024-01-15T14:05:24;33.88;;;15.88;;
20619;SDS011;10469;42.720;23.252;2024-01-15T14:07:50;37.25;;;17.60;;
20619;SDS011;10469;42.720;23.252;2024-01-15T14:10:15;32.72;;;15.38;;
20619;SDS011;10469;42.720;23.252;2024-01-15T14:12:41;35.22;;;16.70;;
20619;SDS011;10469;42.720;23.252;2024-01-15T14:15:07;40.85;;;16.65;;
20619;SDS011;10469;42.720;23.252;2024-01-15T14:17:34;28.75;;;16.17;;
20619;SDS011;10469;42.720;23.252;2024-01-15T14:19:59;33.08;;;16.30;;
20619;SDS011;10469;42.720;23.252;2024-01-15T14:22:25;38.45;;;18.27;;
20619;SDS011;10469;42.720;23.252;2024-01-15T14:24:50;38.25;;;18.10;;
20619;SDS011;10469;42.720;23.252;2024-01-15T14:27:17;30.92;;;16.98;;
20619;SDS011;10469;42.720;23.252;2024-01-15T14:29:42;47.83;;;18.90;;
20619;SDS011;10469;42.720;23.252;2024-01-15T14:32:08;39.08;;;18.95;;